createdAt,value
2022-08-29T00:01:59.690Z,98969.28
2022-08-29T00:04:26.114Z,98978.66
2022-08-29T00:06:52.457Z,98974.16
2022-08-29T00:09:18.627Z,98972.38
2022-08-29T00:11:46.511Z,98979.50
2022-08-29T00:14:21.099Z,98975.06
2022-08-29T00:16:49.852Z,98975.81
2022-08-29T00:19:16.099Z,98974.78
2022-08-29T00:21:42.265Z,98975.25
2022-08-29T00:24:09.342Z,98983.16
2022-08-29T00:26:35.478Z,98983.34
2022-08-29T00:29:01.613Z,98993.94
2022-08-29T00:31:27.827Z,98988.13
2022-08-29T00:33:54.052Z,98990.78
2022-08-29T00:36:20.176Z,98976.47
2022-08-29T00:38:49.094Z,98981.44
2022-08-29T00:41:15.232Z,98988.72
2022-08-29T00:43:41.374Z,98983.97
2022-08-29T00:46:07.578Z,98983.59
2022-08-29T00:48:33.773Z,98980.13
2022-08-29T00:50:59.897Z,98984.75
2022-08-29T00:53:26.054Z,98981.13
2022-08-29T00:55:53.378Z,98983.34
2022-08-29T00:58:19.509Z,98972.72
2022-08-29T01:00:45.709Z,98972.63
2022-08-29T01:03:11.881Z,98972.16
2022-08-29T01:05:38.022Z,98980.88
2022-08-29T01:08:04.187Z,98973.81
2022-08-29T01:10:30.324Z,98968.03
2022-08-29T01:12:56.499Z,98972.69
2022-08-29T01:15:22.658Z,98968.19
2022-08-29T01:17:48.818Z,98968.72
2022-08-29T01:20:14.961Z,98968.16
2022-08-29T01:22:41.121Z,98969.69
2022-08-29T01:25:07.245Z,98974.69
2022-08-29T01:27:33.384Z,98971.09
2022-08-29T01:29:59.552Z,98982.97
2022-08-29T01:32:25.746Z,98978.69
2022-08-29T01:34:51.904Z,98976.97
2022-08-29T01:37:18.871Z,98977.50
2022-08-29T01:39:44.996Z,98982.31
2022-08-29T01:42:11.124Z,98976.94
2022-08-29T01:44:37.284Z,98976.94
2022-08-29T01:47:03.709Z,98973.50
2022-08-29T01:49:29.907Z,98973.97
2022-08-29T01:51:56.050Z,98971.78
2022-08-29T01:54:22.186Z,98973.03
2022-08-29T01:56:49.852Z,98981.38
2022-08-29T01:59:16.034Z,98975.44
2022-08-29T02:01:42.218Z,98983.94
2022-08-29T02:04:08.365Z,98984.78
2022-08-29T02:06:34.547Z,98982.28
2022-08-29T02:09:00.701Z,98990.25
2022-08-29T02:11:26.848Z,98987.88
2022-08-29T02:13:53.302Z,98985.97
2022-08-29T02:16:19.460Z,98987.44
2022-08-29T02:18:45.648Z,98986.19
2022-08-29T02:21:11.830Z,98987.59
2022-08-29T02:23:37.968Z,98989.53
2022-08-29T02:26:04.153Z,98987.69
2022-08-29T02:28:30.302Z,98989.91
2022-08-29T02:30:56.699Z,98987.31
2022-08-29T02:33:23.085Z,98984.41
2022-08-29T02:35:49.229Z,98983.41
2022-08-29T02:38:16.187Z,98982.84
2022-08-29T02:40:42.402Z,98991.31
2022-08-29T02:43:08.551Z,98996.56
2022-08-29T02:45:34.685Z,98996.56
2022-08-29T02:48:00.832Z,98994.84
2022-08-29T02:50:26.988Z,98992.88
2022-08-29T02:52:53.128Z,98994.19
2022-08-29T02:55:19.260Z,98992.38
2022-08-29T02:57:45.470Z,98990.53
2022-08-29T03:00:11.596Z,98997.81
2022-08-29T03:02:37.743Z,98993.69
2022-08-29T03:05:03.885Z,99003.28
2022-08-29T03:07:30.034Z,98984.38
2022-08-29T03:09:56.156Z,98994.53
2022-08-29T03:12:22.306Z,98992.69
2022-08-29T03:14:48.441Z,98993.50
2022-08-29T03:17:14.564Z,98995.66
2022-08-29T03:19:40.721Z,98984.72
2022-08-29T03:22:06.854Z,98983.47
2022-08-29T03:24:32.997Z,98991.66
2022-08-29T03:26:59.159Z,98989.31
2022-08-29T03:29:25.305Z,98989.41
2022-08-29T03:31:51.449Z,98981.41
2022-08-29T03:34:17.610Z,98982.50
2022-08-29T03:36:43.738Z,98978.66
2022-08-29T03:39:09.879Z,98988.88
2022-08-29T03:41:36.034Z,98991.91
2022-08-29T03:44:02.165Z,98991.38
2022-08-29T03:46:28.362Z,98983.41
2022-08-29T03:48:54.590Z,98989.91
2022-08-29T03:51:20.709Z,98987.94
2022-08-29T03:53:46.847Z,98991.56
2022-08-29T03:56:18.353Z,98978.94
2022-08-29T03:58:48.094Z,98990.72
2022-08-29T04:01:18.288Z,98981.13
2022-08-29T04:03:44.446Z,98980.91
2022-08-29T04:06:10.585Z,98978.88
2022-08-29T04:08:36.743Z,98983.25
2022-08-29T04:11:02.916Z,98975.28
2022-08-29T04:13:29.059Z,98982.47
2022-08-29T04:15:55.250Z,98983.44
2022-08-29T04:18:22.565Z,98986.06
2022-08-29T04:20:48.857Z,98985.28
2022-08-29T04:23:15.079Z,98978.97
2022-08-29T04:25:41.205Z,98993.75
2022-08-29T04:28:07.466Z,98994.59
2022-08-29T04:30:33.720Z,98986.94
2022-08-29T04:32:59.861Z,98988.91
2022-08-29T04:35:25.997Z,98991.91
2022-08-29T04:37:52.166Z,98987.91
2022-08-29T04:40:18.355Z,98987.44
2022-08-29T04:42:44.557Z,98988.63
2022-08-29T04:45:11.695Z,98986.28
2022-08-29T04:47:37.828Z,98988.44
2022-08-29T04:50:03.953Z,98990.59
2022-08-29T04:52:30.119Z,98996.34
2022-08-29T04:54:56.262Z,99005.28
2022-08-29T04:57:22.454Z,99004.66
2022-08-29T04:59:48.611Z,98998.19
2022-08-29T05:02:16.644Z,99004.53
2022-08-29T05:04:42.769Z,99005.16
2022-08-29T05:07:08.906Z,99003.66
2022-08-29T05:09:35.029Z,99009.69
2022-08-29T05:12:01.172Z,99008.50
2022-08-29T05:14:27.328Z,99013.00
2022-08-29T05:16:53.469Z,99013.81
2022-08-29T05:19:19.654Z,99014.00
2022-08-29T05:21:45.811Z,99012.47
2022-08-29T05:24:11.957Z,99010.16
2022-08-29T05:26:38.112Z,99014.75
2022-08-29T05:29:04.254Z,99014.06
2022-08-29T05:31:34.719Z,99019.13
2022-08-29T05:34:00.916Z,99022.81
2022-08-29T05:36:47.123Z,99019.28
2022-08-29T05:39:13.876Z,99015.41
2022-08-29T05:41:40.111Z,99015.41
2022-08-29T05:44:06.271Z,99007.06
2022-08-29T05:46:32.441Z,99002.75
2022-08-29T05:48:58.640Z,98997.56
2022-08-29T05:51:24.951Z,98995.81
2022-08-29T05:53:51.084Z,99011.03
2022-08-29T05:56:17.240Z,99011.84
2022-08-29T05:58:43.401Z,99015.25
2022-08-29T06:01:09.578Z,99026.38
2022-08-29T06:03:35.812Z,99030.66
2022-08-29T06:06:02.052Z,99032.13
2022-08-29T06:08:28.194Z,99033.31
2022-08-29T06:10:54.322Z,99043.16
2022-08-29T06:13:20.466Z,99033.63
2022-08-29T06:15:46.628Z,99024.81
2022-08-29T06:18:12.817Z,99031.84
2022-08-29T06:20:38.973Z,99032.13
2022-08-29T06:23:05.164Z,99038.81
2022-08-29T06:25:40.050Z,99043.59
2022-08-29T06:28:06.906Z,99034.63
2022-08-29T06:30:33.105Z,99038.91
2022-08-29T06:32:59.255Z,99045.22
2022-08-29T06:35:25.463Z,99041.53
2022-08-29T06:37:51.601Z,99045.72
2022-08-29T06:40:17.794Z,99036.56
2022-08-29T06:42:44.013Z,99035.66
2022-08-29T06:45:10.145Z,99044.50
2022-08-29T06:47:36.292Z,99048.53
2022-08-29T06:50:02.435Z,99037.50
2022-08-29T06:52:28.568Z,99033.72
2022-08-29T06:54:54.697Z,99044.50
2022-08-29T06:57:20.859Z,99048.81
2022-08-29T06:59:46.993Z,99045.81
2022-08-29T07:02:13.189Z,99045.00
2022-08-29T07:04:39.396Z,99034.88
2022-08-29T07:07:05.529Z,99043.06
2022-08-29T07:09:31.661Z,99052.44
2022-08-29T07:11:57.857Z,99060.56
2022-08-29T07:14:24.034Z,99067.28
2022-08-29T07:16:50.213Z,99065.72
2022-08-29T07:19:16.416Z,99061.72
2022-08-29T07:21:42.557Z,99056.72
2022-08-29T07:24:08.708Z,99058.06
2022-08-29T07:26:34.901Z,99061.16
2022-08-29T07:29:03.152Z,99056.38
2022-08-29T07:31:31.216Z,99053.88
2022-08-29T07:34:02.299Z,99047.56
2022-08-29T07:36:29.132Z,99059.34
2022-08-29T07:38:55.250Z,99051.97
2022-08-29T07:41:21.413Z,99059.75
2022-08-29T07:43:47.587Z,99060.72
2022-08-29T07:46:13.811Z,99065.91
2022-08-29T07:48:40.006Z,99067.63
2022-08-29T07:51:09.860Z,99062.78
2022-08-29T07:53:36.680Z,99066.38
2022-08-29T07:56:02.831Z,99064.28
2022-08-29T07:58:28.978Z,99065.63
2022-08-29T08:00:55.109Z,99074.63
2022-08-29T08:03:21.277Z,99078.16
2022-08-29T08:05:47.404Z,99087.25
2022-08-29T08:08:13.900Z,99087.72
2022-08-29T08:10:41.534Z,99087.19
2022-08-29T08:13:07.733Z,99084.78
2022-08-29T08:15:33.902Z,99076.59
2022-08-29T08:18:00.057Z,99092.94
2022-08-29T08:20:26.193Z,99099.19
2022-08-29T08:22:54.361Z,99090.41
2022-08-29T08:25:21.523Z,99090.72
2022-08-29T08:27:50.661Z,99089.94
2022-08-29T08:30:16.800Z,99087.50
2022-08-29T08:32:46.413Z,99081.53
2022-08-29T08:35:13.586Z,99090.44
2022-08-29T08:37:39.889Z,99081.38
2022-08-29T08:40:06.091Z,99073.88
2022-08-29T08:42:32.265Z,99078.41
2022-08-29T08:44:58.401Z,99083.22
2022-08-29T08:47:24.564Z,99081.38
2022-08-29T08:49:50.735Z,99080.97
2022-08-29T08:52:16.866Z,99079.59
2022-08-29T08:54:43.031Z,99082.47
2022-08-29T08:57:09.183Z,99087.59
2022-08-29T08:59:35.335Z,99082.03
2022-08-29T09:02:06.582Z,99076.69
2022-08-29T09:04:33.794Z,99082.69
2022-08-29T09:06:59.928Z,99086.41
2022-08-29T09:09:26.076Z,99076.47
2022-08-29T09:11:52.210Z,99083.53
2022-08-29T09:14:18.358Z,99079.59
2022-08-29T09:16:44.572Z,99080.66
2022-08-29T09:19:10.770Z,99080.00
2022-08-29T09:21:41.072Z,99087.03
2022-08-29T09:24:07.964Z,99083.91
2022-08-29T09:26:34.141Z,99080.22
2022-08-29T09:29:00.277Z,99084.34
2022-08-29T09:31:26.460Z,99071.94
2022-08-29T09:33:52.743Z,99075.25
2022-08-29T09:36:18.900Z,99073.19
2022-08-29T09:38:45.100Z,99071.88
2022-08-29T09:41:11.242Z,99079.09
2022-08-29T09:43:37.389Z,99081.72
2022-08-29T09:46:03.605Z,99088.16
2022-08-29T09:48:34.654Z,99083.34
2022-08-29T09:51:01.584Z,99091.22
2022-08-29T09:53:27.933Z,99087.28
2022-08-29T09:55:55.764Z,99091.56
2022-08-29T09:58:21.908Z,99096.69
2022-08-29T10:00:48.086Z,99082.22
2022-08-29T10:03:14.285Z,99080.16
2022-08-29T10:05:40.524Z,99075.34
2022-08-29T10:08:06.669Z,99081.88
2022-08-29T10:10:32.806Z,99084.22
2022-08-29T10:12:58.937Z,99084.03
2022-08-29T10:15:48.976Z,99083.47
2022-08-29T10:18:11.189Z,99082.63
2022-08-29T10:20:37.344Z,99075.59
2022-08-29T10:23:03.586Z,99081.78
2022-08-29T10:25:29.725Z,99082.19
2022-08-29T10:27:55.883Z,99078.47
2022-08-29T10:30:22.050Z,99078.19
2022-08-29T10:32:48.209Z,99078.56
2022-08-29T10:35:14.374Z,99070.19
2022-08-29T10:37:40.523Z,99076.75
2022-08-29T10:40:06.739Z,99076.34
2022-08-29T10:42:33.066Z,99067.59
2022-08-29T10:44:59.213Z,99071.19
2022-08-29T10:47:25.363Z,99056.88
2022-08-29T10:49:51.519Z,99077.91
2022-08-29T10:52:17.658Z,99066.06
2022-08-29T10:54:43.807Z,99068.28
2022-08-29T10:57:10.051Z,99069.13
2022-08-29T10:59:36.199Z,99074.78
2022-08-29T11:02:02.337Z,99070.69
2022-08-29T11:04:28.555Z,99065.56
2022-08-29T11:06:54.792Z,99057.84
2022-08-29T11:09:20.930Z,99057.03
2022-08-29T11:11:47.099Z,99057.66
2022-08-29T11:14:13.260Z,99057.38
2022-08-29T11:16:39.418Z,99051.81
2022-08-29T11:19:05.610Z,99055.13
2022-08-29T11:21:31.750Z,99047.03
2022-08-29T11:23:57.873Z,99035.91
2022-08-29T11:26:24.092Z,99044.66
2022-08-29T11:28:50.240Z,99044.38
2022-08-29T11:31:16.455Z,99030.13
2022-08-29T11:33:42.655Z,99027.38
2022-08-29T11:36:08.785Z,99034.41
2022-08-29T11:38:34.927Z,99026.25
2022-08-29T11:43:47.193Z,99023.13
2022-08-29T11:46:13.740Z,99014.78
2022-08-29T11:48:39.864Z,99015.53
2022-08-29T11:51:05.982Z,99005.03
2022-08-29T11:53:32.143Z,99014.97
2022-08-29T11:55:58.277Z,99021.13
2022-08-29T11:58:24.414Z,99015.53
2022-08-29T12:00:50.903Z,99014.63
2022-08-29T12:03:28.067Z,99015.59
2022-08-29T12:05:55.223Z,99017.25
2022-08-29T12:08:35.972Z,98995.63
2022-08-29T12:11:02.525Z,98992.38
2022-08-29T12:13:28.677Z,98998.09
2022-08-29T12:15:54.921Z,98986.06
2022-08-29T12:18:21.131Z,98985.38
2022-08-29T12:20:47.259Z,98989.53
2022-08-29T12:23:13.393Z,98990.84
2022-08-29T12:25:39.550Z,98992.81
2022-08-29T12:28:06.004Z,98990.09
2022-08-29T12:30:32.353Z,98994.91
2022-08-29T12:32:58.545Z,98985.38
2022-08-29T12:35:24.728Z,98982.56
2022-08-29T12:37:50.864Z,98981.22
2022-08-29T12:40:17.090Z,98983.16
2022-08-29T12:42:43.299Z,98981.13
2022-08-29T12:45:09.448Z,98975.22
2022-08-29T12:47:35.622Z,98977.03
2022-08-29T12:50:01.770Z,98968.25
2022-08-29T12:52:27.913Z,98962.84
2022-08-29T12:54:56.448Z,98975.97
2022-08-29T12:57:22.826Z,98971.06
2022-08-29T12:59:48.940Z,98968.25
2022-08-29T13:02:15.158Z,98968.84
2022-08-29T13:04:41.302Z,98963.75
2022-08-29T13:07:07.471Z,98957.66
2022-08-29T13:09:33.651Z,98954.47
2022-08-29T13:11:59.791Z,98956.63
2022-08-29T13:14:25.954Z,98964.56
2022-08-29T13:16:52.122Z,98963.31
2022-08-29T13:19:18.268Z,98965.63
2022-08-29T13:21:44.403Z,98964.34
2022-08-29T13:24:10.576Z,98959.03
2022-08-29T13:26:36.731Z,98960.13
2022-08-29T13:29:02.869Z,98966.38
2022-08-29T13:31:29.093Z,98966.38
2022-08-29T13:33:55.276Z,98956.69
2022-08-29T13:36:21.419Z,98962.13
2022-08-29T13:38:47.579Z,98949.44
2022-08-29T13:41:13.705Z,98951.81
2022-08-29T13:43:39.828Z,98950.81
2022-08-29T13:46:06.019Z,98940.38
2022-08-29T13:48:32.197Z,98930.75
2022-08-29T13:50:58.327Z,98933.06
2022-08-29T13:53:24.540Z,98932.84
2022-08-29T13:55:50.687Z,98938.88
2022-08-29T13:58:16.976Z,98935.03
2022-08-29T14:00:43.242Z,98939.13
2022-08-29T14:03:09.623Z,98937.13
2022-08-29T14:05:35.858Z,98944.75
2022-08-29T14:08:02.002Z,98931.03
2022-08-29T14:10:28.137Z,98934.06
2022-08-29T14:12:54.281Z,98942.81
2022-08-29T14:15:20.433Z,98935.06
2022-08-29T14:17:46.577Z,98925.69
2022-08-29T14:20:12.751Z,98930.44
2022-08-29T14:22:38.915Z,98920.56
2022-08-29T14:25:05.070Z,98910.94
2022-08-29T14:27:31.190Z,98914.28
2022-08-29T14:29:57.413Z,98902.63
2022-08-29T14:32:23.589Z,98901.09
2022-08-29T14:34:51.175Z,98897.88
2022-08-29T14:37:18.651Z,98913.09
2022-08-29T14:39:44.804Z,98913.06
2022-08-29T14:42:16.209Z,98910.75
2022-08-29T14:44:42.354Z,98913.06
2022-08-29T14:47:08.498Z,98910.66
2022-08-29T14:49:34.634Z,98920.41
2022-08-29T14:52:00.790Z,98908.16
2022-08-29T14:54:26.930Z,98901.28
2022-08-29T14:56:53.061Z,98916.94
2022-08-29T14:59:19.220Z,98911.22
2022-08-29T15:01:48.651Z,98905.47
2022-08-29T15:04:18.988Z,98906.03
2022-08-29T15:06:48.005Z,98896.69
2022-08-29T15:09:14.148Z,98906.19
2022-08-29T15:11:40.268Z,98890.41
2022-08-29T15:14:07.516Z,98896.72
2022-08-29T15:16:33.656Z,98897.34
2022-08-29T15:19:48.802Z,98900.53
2022-08-29T15:21:45.921Z,98901.53
2022-08-29T15:24:12.051Z,98892.72
2022-08-29T15:26:38.173Z,98890.53
2022-08-29T15:29:04.332Z,98884.78
2022-08-29T15:31:30.516Z,98887.31
2022-08-29T15:33:56.670Z,98887.31
2022-08-29T15:36:22.824Z,98881.13
2022-08-29T15:38:48.961Z,98885.81
2022-08-29T15:41:15.094Z,98875.13
2022-08-29T15:43:41.263Z,98872.47
2022-08-29T15:46:07.481Z,98872.63
2022-08-29T15:48:33.662Z,98868.63
2022-08-29T15:50:59.822Z,98859.91
2022-08-29T15:53:25.940Z,98866.91
2022-08-29T15:55:52.078Z,98868.41
2022-08-29T15:58:18.282Z,98866.19
2022-08-29T16:00:44.417Z,98857.47
2022-08-29T16:03:10.567Z,98859.19
2022-08-29T16:05:36.757Z,98856.00
2022-08-29T16:08:02.908Z,98851.63
2022-08-29T16:10:29.045Z,98845.91
2022-08-29T16:12:55.215Z,98845.75
2022-08-29T16:15:21.344Z,98844.69
2022-08-29T16:17:47.476Z,98832.59
2022-08-29T16:20:13.666Z,98842.56
2022-08-29T16:22:39.799Z,98844.09
2022-08-29T16:25:05.921Z,98840.50
2022-08-29T16:27:32.062Z,98840.41
2022-08-29T16:29:58.198Z,98837.59
2022-08-29T16:32:24.333Z,98839.09
2022-08-29T16:34:50.480Z,98840.16
2022-08-29T16:37:16.626Z,98841.22
2022-08-29T16:39:42.773Z,98837.63
2022-08-29T16:42:08.925Z,98841.16
2022-08-29T16:44:35.072Z,98849.50
2022-08-29T16:47:01.225Z,98847.69
2022-08-29T16:49:27.392Z,98848.50
2022-08-29T16:51:53.541Z,98843.63
2022-08-29T16:54:19.674Z,98847.88
2022-08-29T16:56:45.832Z,98851.44
2022-08-29T16:59:11.962Z,98851.50
2022-08-29T17:01:38.149Z,98860.34
2022-08-29T17:04:05.121Z,98850.97
2022-08-29T17:06:31.249Z,98847.94
2022-08-29T17:08:57.670Z,98846.63
2022-08-29T17:11:23.831Z,98834.00
2022-08-29T17:13:49.965Z,98847.25
2022-08-29T17:16:16.149Z,98854.84
2022-08-29T17:18:42.433Z,98851.31
2022-08-29T17:21:08.576Z,98847.69
2022-08-29T17:23:34.721Z,98852.38
2022-08-29T17:26:00.882Z,98859.00
2022-08-29T17:28:27.008Z,98857.91
2022-08-29T17:30:53.172Z,98844.81
2022-08-29T17:33:19.574Z,98841.25
2022-08-29T17:35:45.909Z,98842.63
2022-08-29T17:38:12.229Z,98838.56
2022-08-29T17:40:38.725Z,98840.66
2022-08-29T17:43:07.024Z,98852.28
2022-08-29T17:45:33.310Z,98847.69
2022-08-29T17:47:59.508Z,98853.09
2022-08-29T17:50:25.649Z,98850.75
2022-08-29T17:52:51.772Z,98854.28
2022-08-29T17:55:17.937Z,98852.88
2022-08-29T17:57:44.071Z,98854.19
2022-08-29T18:00:10.214Z,98857.28
2022-08-29T18:02:36.474Z,98853.59
2022-08-29T18:05:02.786Z,98857.09
2022-08-29T18:07:28.920Z,98860.75
2022-08-29T18:09:57.473Z,98856.78
2022-08-29T18:12:23.734Z,98850.59
2022-08-29T18:14:49.862Z,98855.41
2022-08-29T18:17:16.009Z,98853.75
2022-08-29T18:19:42.139Z,98853.41
2022-08-29T18:22:08.283Z,98857.59
2022-08-29T18:24:34.426Z,98856.56
2022-08-29T18:27:00.569Z,98855.25
2022-08-29T18:29:26.727Z,98859.75
2022-08-29T18:31:52.869Z,98863.84
2022-08-29T18:34:18.996Z,98864.38
2022-08-29T18:36:45.155Z,98860.06
2022-08-29T18:39:11.297Z,98862.94
2022-08-29T18:41:37.465Z,98860.00
2022-08-29T18:44:03.611Z,98860.91
2022-08-29T18:46:29.828Z,98863.16
2022-08-29T18:48:55.977Z,98864.13
2022-08-29T18:51:22.122Z,98863.63
2022-08-29T18:53:48.286Z,98866.72
2022-08-29T18:56:14.419Z,98869.38
2022-08-29T18:58:40.569Z,98868.78
2022-08-29T19:01:06.840Z,98865.84
2022-08-29T19:03:33.053Z,98862.63
2022-08-29T19:05:59.197Z,98865.34
2022-08-29T19:08:25.741Z,98869.31
2022-08-29T19:10:53.922Z,98866.59
2022-08-29T19:13:21.872Z,98866.59
2022-08-29T19:15:51.419Z,98870.06
2022-08-29T19:18:17.672Z,98875.06
2022-08-29T19:20:43.908Z,98876.16
2022-08-29T19:23:10.719Z,98879.09
2022-08-29T19:25:36.858Z,98869.47
2022-08-29T19:28:02.988Z,98878.34
2022-08-29T19:30:29.153Z,98879.69
2022-08-29T19:32:55.303Z,98884.66
2022-08-29T19:35:21.439Z,98883.69
2022-08-29T19:37:47.573Z,98872.50
2022-08-29T19:40:13.760Z,98877.50
2022-08-29T19:42:39.912Z,98875.47
2022-08-29T19:45:06.066Z,98882.41
2022-08-29T19:47:32.839Z,98876.59
2022-08-29T19:49:58.988Z,98885.72
2022-08-29T19:52:25.135Z,98884.28
2022-08-29T19:54:51.269Z,98885.06
2022-08-29T19:57:17.997Z,98884.84
2022-08-29T19:59:44.690Z,98885.31
2022-08-29T20:02:10.919Z,98871.09
2022-08-29T20:04:37.137Z,98881.56
2022-08-29T20:07:03.305Z,98880.63
2022-08-29T20:09:29.550Z,98891.06
2022-08-29T20:11:56.582Z,98889.28
2022-08-29T20:14:22.773Z,98883.53
2022-08-29T20:16:48.991Z,98882.13
2022-08-29T20:19:15.184Z,98890.41
2022-08-29T20:21:41.341Z,98889.38
2022-08-29T20:24:07.486Z,98896.03
2022-08-29T20:26:33.638Z,98888.03
2022-08-29T20:28:59.812Z,98892.47
2022-08-29T20:31:26.009Z,98888.88
2022-08-29T20:33:52.189Z,98889.38
2022-08-29T20:36:18.353Z,98884.81
2022-08-29T20:38:44.491Z,98886.88
2022-08-29T20:41:10.621Z,98880.91
2022-08-29T20:43:39.154Z,98884.66
2022-08-29T20:46:05.414Z,98884.84
2022-08-29T20:48:31.565Z,98883.25
2022-08-29T20:50:57.747Z,98883.69
2022-08-29T20:53:31.661Z,98883.47
2022-08-29T20:55:59.242Z,98882.84
2022-08-29T20:58:25.444Z,98887.03
2022-08-29T21:00:55.165Z,98886.69
2022-08-29T21:03:21.354Z,98883.38
2022-08-29T21:05:47.488Z,98886.91
2022-08-29T21:08:13.656Z,98891.69
2022-08-29T21:10:39.796Z,98893.56
2022-08-29T21:13:05.925Z,98894.81
2022-08-29T21:15:32.063Z,98896.66
2022-08-29T21:17:58.225Z,98897.47
2022-08-29T21:20:24.375Z,98892.31
2022-08-29T21:22:50.515Z,98891.53
2022-08-29T21:25:16.741Z,98890.25
2022-08-29T21:27:42.865Z,98883.06
2022-08-29T21:30:09.009Z,98879.59
2022-08-29T21:32:35.163Z,98884.50
2022-08-29T21:35:01.311Z,98877.44
2022-08-29T21:37:27.452Z,98879.63
2022-08-29T21:39:53.606Z,98886.47
2022-08-29T21:42:19.800Z,98888.50
2022-08-29T21:44:45.941Z,98890.31
2022-08-29T21:47:14.819Z,98896.19
2022-08-29T21:49:43.805Z,98897.81
2022-08-29T21:52:09.954Z,98894.16
2022-08-29T21:54:36.113Z,98902.41
2022-08-29T21:57:02.243Z,98891.03
2022-08-29T21:59:28.381Z,98887.13
2022-08-29T22:01:54.962Z,98884.63
2022-08-29T22:04:28.083Z,98876.19
2022-08-29T22:06:55.464Z,98886.31
2022-08-29T22:09:22.047Z,98884.88
2022-08-29T22:11:48.188Z,98893.75
2022-08-29T22:14:14.332Z,98879.34
2022-08-29T22:16:40.488Z,98883.06
2022-08-29T22:19:06.626Z,98890.50
2022-08-29T22:21:32.819Z,98886.13
2022-08-29T22:23:58.956Z,98889.06
2022-08-29T22:26:25.076Z,98887.00
2022-08-29T22:28:51.762Z,98885.97
2022-08-29T22:31:17.953Z,98891.56
2022-08-29T22:33:44.126Z,98891.94
2022-08-29T22:36:10.276Z,98889.47
2022-08-29T22:38:36.405Z,98895.44
2022-08-29T22:41:02.532Z,98902.72
2022-08-29T22:43:28.672Z,98901.91
2022-08-29T22:45:54.797Z,98906.00
2022-08-29T22:48:20.924Z,98912.19
2022-08-29T22:50:58.563Z,98900.66
2022-08-29T22:53:24.884Z,98910.34
2022-08-29T22:55:51.036Z,98905.19
2022-08-29T22:58:17.185Z,98906.00
2022-08-29T23:00:43.313Z,98906.41
2022-08-29T23:03:09.558Z,98909.53
2022-08-29T23:05:35.777Z,98911.53
2022-08-29T23:08:01.920Z,98911.16
2022-08-29T23:10:28.085Z,98898.38
2022-08-29T23:12:54.218Z,98894.88
2022-08-29T23:15:20.354Z,98901.66
2022-08-29T23:17:46.497Z,98898.59
2022-08-29T23:20:12.627Z,98897.34
2022-08-29T23:22:38.766Z,98901.25
2022-08-29T23:25:05.409Z,98896.53
2022-08-29T23:27:31.547Z,98903.97
2022-08-29T23:29:57.681Z,98906.00
2022-08-29T23:32:24.247Z,98907.66
2022-08-29T23:34:50.386Z,98911.78
2022-08-29T23:37:16.522Z,98910.56
2022-08-29T23:39:42.729Z,98910.13
2022-08-29T23:42:08.866Z,98911.78
2022-08-29T23:44:34.995Z,98898.16
2022-08-29T23:47:01.140Z,98896.09
2022-08-29T23:49:27.270Z,98886.00
2022-08-29T23:51:53.413Z,98899.41
2022-08-29T23:54:19.570Z,98900.44
2022-08-29T23:56:45.710Z,98902.72
2022-08-29T23:59:11.848Z,98905.19
